Doss, Texas
Current Conditions -  °F | °C
As of 1:55 AM on Saturday 20 Dec 2014 (Local Time) from KT82 Reporting Station
Overcast Overcast  
Wind Chill: 45°   Ceiling: 900
Heat Index: 45°   Visibility: 10mi
Dew Point: 42°   Wind: 3mph
Humidity: 88%   Direction: 50°NE
Pressure: 30.18"   Gusts: NA
Location:  30.45°N, 99.13°W
Report Text: KT82 200755Z AUTO 05003KT 10SM OVC009 07/06 A3018 RMK AO2 T00730055
Loading
Personal Weather Stations






























Interactive Weather Map New forecast layout! Learn more

10-Day Weather Forecast

Advertisements
Track Severe Weather on mobile